sensor_id;sensor_type;location;lat;lon;timestamp;pressure;altitude;pressure_sealevel;temperature;humidity
76108;BME280;64834;52.516;10.528;2023-06-01T00:00:15;101550.88;;;11.01;84.91
76108;BME280;64834;52.516;10.528;2023-06-01T00:02:40;101549.13;;;10.89;85.55
76108;BME280;64834;52.516;10.528;2023-06-01T00:05:06;101548.28;;;10.76;86.34
76108;BME280;64834;52.516;10.528;2023-06-01T00:07:32;101545.59;;;10.75;86.82
76108;BME280;64834;52.516;10.528;2023-06-01T00:09:58;101548.06;;;10.73;86.86
76108;BME280;64834;52.516;10.528;2023-06-01T00:12:25;101550.00;;;10.76;86.33
76108;BME280;64834;52.516;10.528;2023-06-01T00:14:50;101551.31;;;10.69;85.79
76108;BME280;64834;52.516;10.528;2023-06-01T00:17:16;101550.25;;;10.67;85.50
76108;BME280;64834;52.516;10.528;2023-06-01T00:19:41;101542.91;;;10.62;85.07
76108;BME280;64834;52.516;10.528;2023-06-01T00:22:10;101547.13;;;10.60;85.11
76108;BME280;64834;52.516;10.528;2023-06-01T00:24:36;101546.22;;;10.59;84.73
76108;BME280;64834;52.516;10.528;2023-06-01T00:27:01;101547.59;;;10.54;85.18
76108;BME280;64834;52.516;10.528;2023-06-01T00:29:27;101550.19;;;10.41;86.29
76108;BME280;64834;52.516;10.528;2023-06-01T00:31:53;101550.03;;;10.26;86.01
76108;BME280;64834;52.516;10.528;2023-06-01T00:34:18;101553.31;;;10.12;87.57
76108;BME280;64834;52.516;10.528;2023-06-01T00:36:43;101547.09;;;9.98;88.46
76108;BME280;64834;52.516;10.528;2023-06-01T00:39:09;101547.34;;;10.01;89.10
76108;BME280;64834;52.516;10.528;2023-06-01T00:41:34;101549.97;;;10.01;90.05
76108;BME280;64834;52.516;10.528;2023-06-01T00:44:00;101543.47;;;10.08;90.50
76108;BME280;64834;52.516;10.528;2023-06-01T00:46:27;101550.59;;;10.10;91.05
76108;BME280;64834;52.516;10.528;2023-06-01T00:48:53;101542.66;;;10.09;91.76
76108;BME280;64834;52.516;10.528;2023-06-01T00:51:18;101542.44;;;10.06;92.31
76108;BME280;64834;52.516;10.528;2023-06-01T00:53:44;101554.03;;;10.09;92.64
76108;BME280;64834;52.516;10.528;2023-06-01T00:56:10;101544.47;;;10.10;92.38
76108;BME280;64834;52.516;10.528;2023-06-01T00:58:38;101537.53;;;10.10;92.16
76108;BME280;64834;52.516;10.528;2023-06-01T01:01:04;101545.00;;;10.17;91.65
76108;BME280;64834;52.516;10.528;2023-06-01T01:03:29;101538.06;;;10.18;91.48
76108;BME280;64834;52.516;10.528;2023-06-01T01:06:21;101547.31;;;10.24;91.73
76108;BME280;64834;52.516;10.528;2023-06-01T01:11:35;101544.44;;;10.21;91.54
76108;BME280;64834;52.516;10.528;2023-06-01T01:16:57;101555.78;;;10.22;91.67
76108;BME280;64834;52.516;10.528;2023-06-01T01:19:52;101550.22;;;10.29;91.65
76108;BME280;64834;52.516;10.528;2023-06-01T01:22:39;101546.13;;;10.33;91.11
76108;BME280;64834;52.516;10.528;2023-06-01T01:28:27;101553.69;;;10.41;90.29
76108;BME280;64834;52.516;10.528;2023-06-01T01:30:57;101552.22;;;10.45;90.40
76108;BME280;64834;52.516;10.528;2023-06-01T01:33:24;101552.75;;;10.52;90.53
76108;BME280;64834;52.516;10.528;2023-06-01T01:35:51;101548.78;;;10.46;90.81
76108;BME280;64834;52.516;10.528;2023-06-01T01:38:17;101548.47;;;10.41;90.71
76108;BME280;64834;52.516;10.528;2023-06-01T01:40:42;101544.94;;;10.41;91.15
76108;BME280;64834;52.516;10.528;2023-06-01T01:43:10;101543.66;;;10.47;90.80
76108;BME280;64834;52.516;10.528;2023-06-01T01:45:36;101529.56;;;10.45;90.59
76108;BME280;64834;52.516;10.528;2023-06-01T01:48:19;101534.00;;;10.46;90.62
76108;BME280;64834;52.516;10.528;2023-06-01T01:51:01;101537.13;;;10.54;90.12
76108;BME280;64834;52.516;10.528;2023-06-01T01:53:29;101538.31;;;10.46;90.67
76108;BME280;64834;52.516;10.528;2023-06-01T01:55:56;101541.31;;;10.64;90.13
76108;BME280;64834;52.516;10.528;2023-06-01T01:58:23;101535.59;;;10.69;89.32
76108;BME280;64834;52.516;10.528;2023-06-01T02:00:49;101534.06;;;10.73;89.45
76108;BME280;64834;52.516;10.528;2023-06-01T02:03:17;101541.59;;;10.68;89.74
76108;BME280;64834;52.516;10.528;2023-06-01T02:05:48;101522.56;;;10.58;90.11
76108;BME280;64834;52.516;10.528;2023-06-01T02:08:13;101521.41;;;10.41;90.94
76108;BME280;64834;52.516;10.528;2023-06-01T02:10:39;101515.16;;;10.39;91.08
76108;BME280;64834;52.516;10.528;2023-06-01T02:13:06;101507.63;;;10.43;91.07
76108;BME280;64834;52.516;10.528;2023-06-01T02:15:32;101521.75;;;10.59;90.72
76108;BME280;64834;52.516;10.528;2023-06-01T02:17:57;101505.94;;;10.44;90.75
76108;BME280;64834;52.516;10.528;2023-06-01T02:20:24;101509.66;;;10.47;91.52
76108;BME280;64834;52.516;10.528;2023-06-01T02:22:50;101520.75;;;10.57;91.03
76108;BME280;64834;52.516;10.528;2023-06-01T02:25:15;101518.81;;;10.54;90.75
76108;BME280;64834;52.516;10.528;2023-06-01T02:27:41;101521.19;;;10.63;91.12
76108;BME280;64834;52.516;10.528;2023-06-01T02:30:07;101514.09;;;10.62;90.62
76108;BME280;64834;52.516;10.528;2023-06-01T02:32:32;101502.97;;;10.64;90.96
76108;BME280;64834;52.516;10.528;2023-06-01T02:35:00;101502.97;;;10.64;90.76
76108;BME280;64834;52.516;10.528;2023-06-01T02:37:25;101499.59;;;10.53;91.30
76108;BME280;64834;52.516;10.528;2023-06-01T02:39:51;101504.72;;;10.52;91.63
76108;BME280;64834;52.516;10.528;2023-06-01T02:42:17;101511.78;;;10.53;91.71
76108;BME280;64834;52.516;10.528;2023-06-01T02:44:42;101509.78;;;10.62;91.76
76108;BME280;64834;52.516;10.528;2023-06-01T02:47:08;101497.78;;;10.52;91.50
76108;BME280;64834;52.516;10.528;2023-06-01T02:49:35;101504.44;;;10.61;91.48
76108;BME280;64834;52.516;10.528;2023-06-01T02:52:00;101503.69;;;10.75;91.30
76108;BME280;64834;52.516;10.528;2023-06-01T02:54:25;101502.97;;;10.77;90.76
76108;BME280;64834;52.516;10.528;2023-06-01T02:56:51;101504.06;;;10.81;90.74
76108;BME280;64834;52.516;10.528;2023-06-01T02:59:16;101505.50;;;10.76;91.28
76108;BME280;64834;52.516;10.528;2023-06-01T03:01:42;101505.50;;;10.76;90.95
76108;BME280;64834;52.516;10.528;2023-06-01T03:04:07;101508.31;;;10.79;91.16
76108;BME280;64834;52.516;10.528;2023-06-01T03:06:33;101507.81;;;10.71;91.64
76108;BME280;64834;52.516;10.528;2023-06-01T03:09:06;101503.16;;;10.80;91.64
76108;BME280;64834;52.516;10.528;2023-06-01T03:11:40;101507.50;;;10.80;91.39
76108;BME280;64834;52.516;10.528;2023-06-01T03:14:05;101500.03;;;10.73;91.70
76108;BME280;64834;52.516;10.528;2023-06-01T03:16:31;101491.78;;;10.67;91.97
76108;BME280;64834;52.516;10.528;2023-06-01T03:19:00;101483.22;;;10.56;92.24
76108;BME280;64834;52.516;10.528;2023-06-01T03:21:26;101492.91;;;10.70;92.24
76108;BME280;64834;52.516;10.528;2023-06-01T03:23:53;101490.09;;;10.80;92.30
76108;BME280;64834;52.516;10.528;2023-06-01T03:26:21;101499.78;;;10.82;92.08
76108;BME280;64834;52.516;10.528;2023-06-01T03:28:49;101486.47;;;10.78;91.85
76108;BME280;64834;52.516;10.528;2023-06-01T03:31:15;101496.34;;;10.83;91.78
76108;BME280;64834;52.516;10.528;2023-06-01T03:33:40;101492.22;;;10.86;92.63
76108;BME280;64834;52.516;10.528;2023-06-01T03:36:06;101498.97;;;10.83;92.04
76108;BME280;64834;52.516;10.528;2023-06-01T03:38:32;101500.06;;;10.86;92.16
76108;BME280;64834;52.516;10.528;2023-06-01T03:40:58;101492.03;;;10.83;91.93
76108;BME280;64834;52.516;10.528;2023-06-01T03:43:26;101496.84;;;10.77;92.18
76108;BME280;64834;52.516;10.528;2023-06-01T03:45:52;101496.63;;;10.74;92.55
76108;BME280;64834;52.516;10.528;2023-06-01T03:48:21;101493.06;;;10.60;93.15
76108;BME280;64834;52.516;10.528;2023-06-01T03:50:50;101484.81;;;10.54;93.56
76108;BME280;64834;52.516;10.528;2023-06-01T03:53:16;101501.53;;;10.56;93.76
76108;BME280;64834;52.516;10.528;2023-06-01T03:55:41;101482.69;;;10.62;93.34
76108;BME280;64834;52.516;10.528;2023-06-01T03:58:12;101485.22;;;10.60;93.63
76108;BME280;64834;52.516;10.528;2023-06-01T04:00:38;101488.66;;;10.59;93.60
76108;BME280;64834;52.516;10.528;2023-06-01T04:03:06;101480.47;;;10.54;94.11
76108;BME280;64834;52.516;10.528;2023-06-01T04:05:32;101481.19;;;10.52;93.76
76108;BME280;64834;52.516;10.528;2023-06-01T04:08:01;101481.50;;;10.57;93.54
76108;BME280;64834;52.516;10.528;2023-06-01T04:10:38;101487.25;;;10.64;92.81
76108;BME280;64834;52.516;10.528;2023-06-01T04:13:08;101486.75;;;10.57;92.05
76108;BME280;64834;52.516;10.528;2023-06-01T04:15:39;101489.34;;;10.57;91.03
76108;BME280;64834;52.516;10.528;2023-06-01T04:18:07;101490.97;;;10.68;90.63
76108;BME280;64834;52.516;10.528;2023-06-01T04:20:34;101480.81;;;10.72;89.89
76108;BME280;64834;52.516;10.528;2023-06-01T04:23:00;101484.88;;;10.94;89.60
76108;BME280;64834;52.516;10.528;2023-06-01T04:25:26;101483.38;;;10.97;89.20
76108;BME280;64834;52.516;10.528;2023-06-01T04:27:51;101488.81;;;11.00;89.74
76108;BME280;64834;52.516;10.528;2023-06-01T04:30:20;101477.94;;;10.94;89.72
76108;BME280;64834;52.516;10.528;2023-06-01T04:32:46;101489.31;;;11.08;89.44
76108;BME280;64834;52.516;10.528;2023-06-01T04:35:13;101490.41;;;11.12;89.02
76108;BME280;64834;52.516;10.528;2023-06-01T04:37:39;101489.41;;;10.96;89.67
76108;BME280;64834;52.516;10.528;2023-06-01T04:40:07;101488.28;;;11.06;89.46
76108;BME280;64834;52.516;10.528;2023-06-01T04:42:35;101486.88;;;11.11;88.91
76108;BME280;64834;52.516;10.528;2023-06-01T04:45:02;101487.09;;;11.14;88.57
76108;BME280;64834;52.516;10.528;2023-06-01T04:47:33;101491.03;;;11.21;88.75
76108;BME280;64834;52.516;10.528;2023-06-01T04:50:05;101491.31;;;11.12;89.85
76108;BME280;64834;52.516;10.528;2023-06-01T04:52:30;101484.41;;;11.13;89.59
76108;BME280;64834;52.516;10.528;2023-06-01T04:54:55;101484.75;;;11.05;90.05
76108;BME280;64834;52.516;10.528;2023-06-01T04:57:21;101488.41;;;11.07;89.14
76108;BME280;64834;52.516;10.528;2023-06-01T04:59:48;101488.09;;;10.90;88.99
76108;BME280;64834;52.516;10.528;2023-06-01T05:02:13;101489.59;;;10.99;88.10
76108;BME280;64834;52.516;10.528;2023-06-01T05:04:39;101482.97;;;11.04;88.01
76108;BME280;64834;52.516;10.528;2023-06-01T05:07:05;101489.81;;;11.16;87.49
76108;BME280;64834;52.516;10.528;2023-06-01T05:09:30;101480.56;;;11.07;87.89
76108;BME280;64834;52.516;10.528;2023-06-01T05:11:55;101477.31;;;10.98;87.99
76108;BME280;64834;52.516;10.528;2023-06-01T05:14:21;101475.41;;;10.96;88.46
76108;BME280;64834;52.516;10.528;2023-06-01T05:16:46;101474.91;;;11.01;88.16
76108;BME280;64834;52.516;10.528;2023-06-01T05:19:13;101479.94;;;10.98;87.96
76108;BME280;64834;52.516;10.528;2023-06-01T05:21:39;101475.41;;;10.96;87.51
76108;BME280;64834;52.516;10.528;2023-06-01T05:24:06;101473.69;;;10.96;86.74
76108;BME280;64834;52.516;10.528;2023-06-01T05:26:31;101482.66;;;11.00;86.47
76108;BME280;64834;52.516;10.528;2023-06-01T05:28:56;101475.22;;;11.19;85.95
76108;BME280;64834;52.516;10.528;2023-06-01T05:31:22;101479.22;;;11.41;85.38
76108;BME280;64834;52.516;10.528;2023-06-01T05:33:47;101476.00;;;11.45;85.01
76108;BME280;64834;52.516;10.528;2023-06-01T05:36:12;101470.38;;;11.39;85.83
76108;BME280;64834;52.516;10.528;2023-06-01T05:38:38;101468.34;;;11.34;85.77
76108;BME280;64834;52.516;10.528;2023-06-01T05:41:03;101475.41;;;11.35;85.76
76108;BME280;64834;52.516;10.528;2023-06-01T05:43:29;101475.31;;;11.21;86.88
76108;BME280;64834;52.516;10.528;2023-06-01T05:45:54;101469.25;;;11.22;86.60
76108;BME280;64834;52.516;10.528;2023-06-01T05:48:21;101481.44;;;11.34;86.81
76108;BME280;64834;52.516;10.528;2023-06-01T05:50:46;101479.53;;;11.19;86.98
76108;BME280;64834;52.516;10.528;2023-06-01T05:53:11;101474.91;;;11.28;87.15
76108;BME280;64834;52.516;10.528;2023-06-01T05:55:37;101480.31;;;11.31;87.05
76108;BME280;64834;52.516;10.528;2023-06-01T05:58:02;101479.56;;;11.32;87.26
76108;BME280;64834;52.516;10.528;2023-06-01T06:00:27;101473.91;;;11.26;85.97
76108;BME280;64834;52.516;10.528;2023-06-01T06:02:53;101477.31;;;11.25;86.45
76108;BME280;64834;52.516;10.528;2023-06-01T06:05:18;101478.66;;;11.31;86.63
76108;BME280;64834;52.516;10.528;2023-06-01T06:07:43;101470.47;;;11.27;86.45
76108;BME280;64834;52.516;10.528;2023-06-01T06:10:09;101479.94;;;11.38;85.90
76108;BME280;64834;52.516;10.528;2023-06-01T06:12:34;101468.34;;;11.34;86.02
76108;BME280;64834;52.516;10.528;2023-06-01T06:15:00;101473.88;;;11.52;85.14
76108;BME280;64834;52.516;10.528;2023-06-01T06:17:25;101464.78;;;11.60;84.67
76108;BME280;64834;52.516;10.528;2023-06-01T06:19:50;101470.91;;;11.61;82.82
76108;BME280;64834;52.516;10.528;2023-06-01T06:22:16;101470.34;;;11.52;82.71
76108;BME280;64834;52.516;10.528;2023-06-01T06:24:41;101471.84;;;11.48;82.34
76108;BME280;64834;52.516;10.528;2023-06-01T06:27:09;101469.03;;;11.58;81.88
76108;BME280;64834;52.516;10.528;2023-06-01T06:29:35;101471.53;;;11.70;82.10
76108;BME280;64834;52.516;10.528;2023-06-01T06:32:00;101469.94;;;11.59;81.45
76108;BME280;64834;52.516;10.528;2023-06-01T06:34:27;101477.19;;;11.50;82.01
76108;BME280;64834;52.516;10.528;2023-06-01T06:36:58;101464.47;;;11.56;81.76
76108;BME280;64834;52.516;10.528;2023-06-01T06:39:24;101472.97;;;11.52;81.82
76108;BME280;64834;52.516;10.528;2023-06-01T06:41:49;101469.13;;;11.60;81.46
76108;BME280;64834;52.516;10.528;2023-06-01T06:44:14;101474.56;;;11.63;81.95
76108;BME280;64834;52.516;10.528;2023-06-01T06:46:40;101461.94;;;11.71;82.28
76108;BME280;64834;52.516;10.528;2023-06-01T06:49:05;101465.97;;;11.66;82.20
76108;BME280;64834;52.516;10.528;2023-06-01T06:51:30;101466.50;;;11.60;82.03
76108;BME280;64834;52.516;10.528;2023-06-01T06:53:56;101471.81;;;11.61;81.98
76108;BME280;64834;52.516;10.528;2023-06-01T06:56:23;101475.06;;;11.57;81.81
76108;BME280;64834;52.516;10.528;2023-06-01T06:58:48;101474.16;;;11.70;81.24
76108;BME280;64834;52.516;10.528;2023-06-01T07:01:13;101471.22;;;11.66;82.11
76108;BME280;64834;52.516;10.528;2023-06-01T07:03:40;101478.78;;;11.61;81.58
76108;BME280;64834;52.516;10.528;2023-06-01T07:06:05;101478.97;;;11.77;81.08
76108;BME280;64834;52.516;10.528;2023-06-01T07:08:31;101484.13;;;11.76;80.99
76108;BME280;64834;52.516;10.528;2023-06-01T07:10:59;101472.41;;;11.84;80.41
76108;BME280;64834;52.516;10.528;2023-06-01T07:13:25;101473.94;;;12.08;79.07
76108;BME280;64834;52.516;10.528;2023-06-01T07:15:52;101469.41;;;12.06;78.90
76108;BME280;64834;52.516;10.528;2023-06-01T07:18:17;101474.22;;;11.85;79.01
76108;BME280;64834;52.516;10.528;2023-06-01T07:20:43;101471.75;;;12.01;78.95
76108;BME280;64834;52.516;10.528;2023-06-01T07:23:08;101474.59;;;12.19;79.09
76108;BME280;64834;52.516;10.528;2023-06-01T07:25:33;101468.78;;;12.10;78.55
76108;BME280;64834;52.516;10.528;2023-06-01T07:27:59;101475.53;;;12.06;78.27
76108;BME280;64834;52.516;10.528;2023-06-01T07:30:32;101468.75;;;11.95;78.33
76108;BME280;64834;52.516;10.528;2023-06-01T07:32:57;101477.91;;;12.02;78.43
76108;BME280;64834;52.516;10.528;2023-06-01T07:35:22;101481.06;;;11.96;78.46
76108;BME280;64834;52.516;10.528;2023-06-01T07:37:48;101478.34;;;11.95;78.68
76108;BME280;64834;52.516;10.528;2023-06-01T07:40:13;101480.16;;;11.96;78.61
76108;BME280;64834;52.516;10.528;2023-06-01T07:42:38;101489.22;;;12.01;78.61
76108;BME280;64834;52.516;10.528;2023-06-01T07:45:04;101488.50;;;12.03;78.41
76108;BME280;64834;52.516;10.528;2023-06-01T07:47:31;101489.53;;;12.20;77.99
76108;BME280;64834;52.516;10.528;2023-06-01T07:49:56;101488.34;;;12.15;78.09
76108;BME280;64834;52.516;10.528;2023-06-01T07:52:22;101489.38;;;12.32;77.10
76108;BME280;64834;52.516;10.528;2023-06-01T07:54:47;101491.91;;;12.30;76.72
76108;BME280;64834;52.516;10.528;2023-06-01T07:57:14;101487.19;;;12.25;76.52
76108;BME280;64834;52.516;10.528;2023-06-01T07:59:40;101497.53;;;12.36;76.72
76108;BME280;64834;52.516;10.528;2023-06-01T08:02:06;101478.09;;;12.48;76.29
76108;BME280;64834;52.516;10.528;2023-06-01T08:04:32;101491.00;;;12.30;75.32
76108;BME280;64834;52.516;10.528;2023-06-01T08:06:58;101487.78;;;12.49;75.63
76108;BME280;64834;52.516;10.528;2023-06-01T08:09:24;101483.25;;;12.61;75.57
76108;BME280;64834;52.516;10.528;2023-06-01T08:11:50;101481.25;;;12.57;75.48
76108;BME280;64834;52.516;10.528;2023-06-01T08:14:16;101485.53;;;12.55;74.64
76108;BME280;64834;52.516;10.528;2023-06-01T08:16:42;101477.41;;;12.65;74.70
76108;BME280;64834;52.516;10.528;2023-06-01T08:19:08;101470.31;;;12.93;73.72
76108;BME280;64834;52.516;10.528;2023-06-01T08:21:34;101470.09;;;13.35;71.54
76108;BME280;64834;52.516;10.528;2023-06-01T08:24:00;101467.34;;;13.48;70.59
76108;BME280;64834;52.516;10.528;2023-06-01T08:26:27;101461.88;;;13.29;70.76
76108;BME280;64834;52.516;10.528;2023-06-01T08:28:52;101461.78;;;13.58;71.61
76108;BME280;64834;52.516;10.528;2023-06-01T08:31:22;101458.59;;;13.80;70.75
76108;BME280;64834;52.516;10.528;2023-06-01T08:33:49;101453.69;;;13.86;70.29
76108;BME280;64834;52.516;10.528;2023-06-01T08:36:15;101454.16;;;13.79;70.69
76108;BME280;64834;52.516;10.528;2023-06-01T08:38:41;101449.25;;;14.18;69.84
76108;BME280;64834;52.516;10.528;2023-06-01T08:41:31;101447.84;;;13.92;69.71
76108;BME280;64834;52.516;10.528;2023-06-01T08:44:03;101449.91;;;13.97;70.47
76108;BME280;64834;52.516;10.528;2023-06-01T08:46:31;101434.25;;;13.68;68.91
76108;BME280;64834;52.516;10.528;2023-06-01T08:48:58;101438.22;;;13.92;68.88
76108;BME280;64834;52.516;10.528;2023-06-01T08:51:24;101432.41;;;14.14;68.28
76108;BME280;64834;52.516;10.528;2023-06-01T08:53:50;101437.94;;;14.20;66.76
76108;BME280;64834;52.516;10.528;2023-06-01T08:56:16;101439.44;;;14.48;68.33
76108;BME280;64834;52.516;10.528;2023-06-01T08:58:43;101436.81;;;14.48;67.06
76108;BME280;64834;52.516;10.528;2023-06-01T09:01:09;101439.69;;;14.70;68.44
76108;BME280;64834;52.516;10.528;2023-06-01T09:03:37;101438.19;;;14.41;67.89
76108;BME280;64834;52.516;10.528;2023-06-01T09:06:02;101431.91;;;14.90;67.21
76108;BME280;64834;52.516;10.528;2023-06-01T09:08:29;101438.28;;;14.26;68.33
76108;BME280;64834;52.516;10.528;2023-06-01T09:10:54;101437.13;;;14.54;68.51
76108;BME280;64834;52.516;10.528;2023-06-01T09:13:40;101428.44;;;14.06;67.43
76108;BME280;64834;52.516;10.528;2023-06-01T09:16:06;101431.13;;;14.40;67.84
76108;BME280;64834;52.516;10.528;2023-06-01T09:18:32;101429.59;;;14.45;66.93
76108;BME280;64834;52.516;10.528;2023-06-01T09:21:12;101427.69;;;14.93;66.51
76108;BME280;64834;52.516;10.528;2023-06-01T09:23:38;101421.66;;;14.96;65.73
76108;BME280;64834;52.516;10.528;2023-06-01T09:26:09;101418.75;;;14.55;66.57
76108;BME280;64834;52.516;10.528;2023-06-01T09:28:57;101420.94;;;14.64;66.97
76108;BME280;64834;52.516;10.528;2023-06-01T09:31:40;101414.16;;;15.21;65.34
76108;BME280;64834;52.516;10.528;2023-06-01T09:34:09;101409.06;;;15.08;63.20
76108;BME280;64834;52.516;10.528;2023-06-01T09:36:36;101409.22;;;15.47;63.12
76108;BME280;64834;52.516;10.528;2023-06-01T09:39:07;101397.84;;;15.30;63.46
76108;BME280;64834;52.516;10.528;2023-06-01T09:41:46;101400.44;;;14.93;65.18
76108;BME280;64834;52.516;10.528;2023-06-01T09:44:13;101397.19;;;15.16;64.68
76108;BME280;64834;52.516;10.528;2023-06-01T09:47:07;101390.81;;;15.85;62.17
76108;BME280;64834;52.516;10.528;2023-06-01T09:49:43;101380.44;;;15.90;62.06
76108;BME280;64834;52.516;10.528;2023-06-01T09:52:14;101391.63;;;15.84;61.80
76108;BME280;64834;52.516;10.528;2023-06-01T09:54:51;101388.28;;;15.88;61.45
76108;BME280;64834;52.516;10.528;2023-06-01T09:57:24;101370.16;;;15.96;61.22
76108;BME280;64834;52.516;10.528;2023-06-01T09:59:50;101372.94;;;15.80;60.78
76108;BME280;64834;52.516;10.528;2023-06-01T10:02:20;101378.78;;;16.32;61.76
76108;BME280;64834;52.516;10.528;2023-06-01T10:04:56;101378.56;;;16.28;61.48
76108;BME280;64834;52.516;10.528;2023-06-01T10:07:26;101367.94;;;16.26;61.26
76108;BME280;64834;52.516;10.528;2023-06-01T10:09:54;101382.97;;;16.27;60.69
76108;BME280;64834;52.516;10.528;2023-06-01T10:12:20;101370.00;;;16.33;61.21
76108;BME280;64834;52.516;10.528;2023-06-01T10:14:46;101368.69;;;16.22;62.21
76108;BME280;64834;52.516;10.528;2023-06-01T10:17:13;101378.41;;;16.44;60.48
76108;BME280;64834;52.516;10.528;2023-06-01T10:19:40;101378.59;;;16.08;62.40
76108;BME280;64834;52.516;10.528;2023-06-01T10:22:06;101374.56;;;16.78;58.89
76108;BME280;64834;52.516;10.528;2023-06-01T10:24:36;101358.06;;;16.83;58.09
76108;BME280;64834;52.516;10.528;2023-06-01T10:27:19;101371.91;;;16.57;59.57
76108;BME280;64834;52.516;10.528;2023-06-01T10:29:46;101353.22;;;16.52;57.56
76108;BME280;64834;52.516;10.528;2023-06-01T10:32:45;101364.28;;;16.64;58.11
76108;BME280;64834;52.516;10.528;2023-06-01T10:40:37;101350.91;;;17.03;60.68
76108;BME280;64834;52.516;10.528;2023-06-01T10:43:03;101354.94;;;16.52;61.29
76108;BME280;64834;52.516;10.528;2023-06-01T10:45:41;101330.97;;;16.26;61.96
76108;BME280;64834;52.516;10.528;2023-06-01T10:48:08;101349.16;;;16.81;60.80
76108;BME280;64834;52.516;10.528;2023-06-01T10:50:37;101350.53;;;16.92;60.51
76108;BME280;64834;52.516;10.528;2023-06-01T10:53:26;101345.28;;;16.94;60.25
76108;BME280;64834;52.516;10.528;2023-06-01T10:56:17;101347.06;;;16.95;59.13
76108;BME280;64834;52.516;10.528;2023-06-01T10:58:43;101350.38;;;16.68;60.79
76108;BME280;64834;52.516;10.528;2023-06-01T11:01:10;101340.53;;;16.85;60.75
76108;BME280;64834;52.516;10.528;2023-06-01T11:03:42;101346.78;;;16.66;59.63
76108;BME280;64834;52.516;10.528;2023-06-01T11:06:28;101337.75;;;16.40;60.82
76108;BME280;64834;52.516;10.528;2023-06-01T11:08:59;101346.97;;;16.50;60.70
76108;BME280;64834;52.516;10.528;2023-06-01T11:14:22;101342.56;;;17.15;58.48
76108;BME280;64834;52.516;10.528;2023-06-01T11:16:49;101324.91;;;17.36;57.64
76108;BME280;64834;52.516;10.528;2023-06-01T11:19:19;101334.41;;;17.09;58.68
76108;BME280;64834;52.516;10.528;2023-06-01T11:21:46;101330.78;;;16.63;59.54
76108;BME280;64834;52.516;10.528;2023-06-01T11:24:16;101331.63;;;16.83;59.96
76108;BME280;64834;52.516;10.528;2023-06-01T11:26:44;101331.91;;;17.12;58.30
76108;BME280;64834;52.516;10.528;2023-06-01T11:29:21;101329.47;;;16.95;57.67
76108;BME280;64834;52.516;10.528;2023-06-01T11:31:48;101343.00;;;17.03;57.97
76108;BME280;64834;52.516;10.528;2023-06-01T11:34:17;101324.72;;;16.87;58.32
76108;BME280;64834;52.516;10.528;2023-06-01T11:36:49;101323.19;;;16.92;57.43
76108;BME280;64834;52.516;10.528;2023-06-01T11:39:28;101326.47;;;16.86;57.64
76108;BME280;64834;52.516;10.528;2023-06-01T11:42:15;101327.41;;;17.33;56.36
76108;BME280;64834;52.516;10.528;2023-06-01T11:44:43;101325.03;;;17.63;57.44
76108;BME280;64834;52.516;10.528;2023-06-01T11:47:13;101325.47;;;17.51;56.24
76108;BME280;64834;52.516;10.528;2023-06-01T11:49:46;101310.19;;;16.98;56.54
76108;BME280;64834;52.516;10.528;2023-06-01T11:52:13;101318.06;;;17.41;57.33
76108;BME280;64834;52.516;10.528;2023-06-01T11:54:38;101306.84;;;17.72;55.55
76108;BME280;64834;52.516;10.528;2023-06-01T11:57:05;101316.44;;;17.00;56.47
76108;BME280;64834;52.516;10.528;2023-06-01T11:59:47;101311.34;;;17.05;57.75
76108;BME280;64834;52.516;10.528;2023-06-01T12:05:05;101298.63;;;17.65;56.12
76108;BME280;64834;52.516;10.528;2023-06-01T12:07:47;101293.63;;;17.48;56.56
76108;BME280;64834;52.516;10.528;2023-06-01T12:10:15;101300.88;;;17.78;55.50
76108;BME280;64834;52.516;10.528;2023-06-01T12:12:42;101285.56;;;17.69;56.23
76108;BME280;64834;52.516;10.528;2023-06-01T12:15:11;101292.28;;;18.09;54.37
76108;BME280;64834;52.516;10.528;2023-06-01T12:17:52;101293.28;;;17.87;54.09
76108;BME280;64834;52.516;10.528;2023-06-01T12:23:14;101288.69;;;17.82;54.56
76108;BME280;64834;52.516;10.528;2023-06-01T12:25:57;101298.97;;;17.98;54.60
76108;BME280;64834;52.516;10.528;2023-06-01T12:28:25;101294.91;;;17.84;53.65
76108;BME280;64834;52.516;10.528;2023-06-01T12:31:14;101293.16;;;17.84;55.20
76108;BME280;64834;52.516;10.528;2023-06-01T12:33:41;101295.09;;;18.14;54.97
76108;BME280;64834;52.516;10.528;2023-06-01T12:36:09;101292.81;;;18.24;53.79
76108;BME280;64834;52.516;10.528;2023-06-01T12:38:35;101299.25;;;18.05;52.75
76108;BME280;64834;52.516;10.528;2023-06-01T12:41:09;101297.66;;;18.11;54.73
76108;BME280;64834;52.516;10.528;2023-06-01T12:43:36;101291.41;;;17.85;54.97
76108;BME280;64834;52.516;10.528;2023-06-01T12:46:03;101287.41;;;17.96;55.85
76108;BME280;64834;52.516;10.528;2023-06-01T12:48:34;101300.00;;;18.28;55.26
76108;BME280;64834;52.516;10.528;2023-06-01T12:50:59;101288.63;;;17.80;55.01
76108;BME280;64834;52.516;10.528;2023-06-01T12:53:26;101285.75;;;17.74;55.33
76108;BME280;64834;52.516;10.528;2023-06-01T12:55:51;101296.94;;;17.43;56.57
76108;BME280;64834;52.516;10.528;2023-06-01T12:58:16;101299.31;;;17.35;57.23
76108;BME280;64834;52.516;10.528;2023-06-01T13:00:42;101292.03;;;18.01;55.09
76108;BME280;64834;52.516;10.528;2023-06-01T13:03:08;101292.94;;;17.54;55.05
76108;BME280;64834;52.516;10.528;2023-06-01T13:05:33;101289.56;;;17.82;54.81
76108;BME280;64834;52.516;10.528;2023-06-01T13:07:58;101293.69;;;18.50;54.47